Map

Track Data

SID SEASON NUMBER BASIN SUBBASIN NAME ISO_TIME NATURE LAT LON WMO_WIND WMO_PRES WMO_AGENCY TRACK_TYPE DIST2LAND LANDFALL IFLAG USA_AGENCY USA_ATCF_ID USA_LAT USA_LON USA_RECORD USA_STATUS USA_WIND USA_PRES USA_SSHS USA_R34_NE USA_R34_SE USA_R34_SW USA_R34_NW USA_R50_NE USA_R50_SE USA_R50_SW USA_R50_NW USA_R64_NE USA_R64_SE USA_R64_SW USA_R64_NW USA_POCI USA_ROCI USA_RMW USA_EYE TOKYO_LAT TOKYO_LON TOKYO_GRADE TOKYO_WIND TOKYO_PRES TOKYO_R50_DIR TOKYO_R50_LONG TOKYO_R50_SHORT TOKYO_R30_DIR TOKYO_R30_LONG TOKYO_R30_SHORT TOKYO_LAND CMA_LAT CMA_LON CMA_CAT CMA_WIND CMA_PRES HKO_LAT HKO_LON HKO_CAT HKO_WIND HKO_PRES NEWDELHI_LAT NEWDELHI_LON NEWDELHI_GRADE NEWDELHI_WIND NEWDELHI_PRES NEWDELHI_CI NEWDELHI_DP NEWDELHI_POCI REUNION_LAT REUNION_LON REUNION_TYPE REUNION_WIND REUNION_PRES REUNION_TNUM REUNION_CI REUNION_RMW REUNION_R34_NE REUNION_R34_SE REUNION_R34_SW REUNION_R34_NW REUNION_R50_NE REUNION_R50_SE REUNION_R50_SW REUNION_R50_NW REUNION_R64_NE REUNION_R64_SE REUNION_R64_SW REUNION_R64_NW BOM_LAT BOM_LON BOM_TYPE BOM_WIND BOM_PRES BOM_TNUM BOM_CI BOM_RMW BOM_R34_NE BOM_R34_SE BOM_R34_SW BOM_R34_NW BOM_R50_NE BOM_R50_SE BOM_R50_SW BOM_R50_NW BOM_R64_NE BOM_R64_SE BOM_R64_SW BOM_R64_NW BOM_ROCI BOM_POCI BOM_EYE BOM_POS_METHOD BOM_PRES_METHOD NADI_LAT NADI_LON NADI_CAT NADI_WIND NADI_PRES WELLINGTON_LAT WELLINGTON_LON WELLINGTON_WIND WELLINGTON_PRES DS824_LAT DS824_LON DS824_STAGE DS824_WIND DS824_PRES TD9636_LAT TD9636_LON TD9636_STAGE TD9636_WIND TD9636_PRES TD9635_LAT TD9635_LON TD9635_WIND TD9635_PRES TD9635_ROCI NEUMANN_LAT NEUMANN_LON NEUMANN_CLASS NEUMANN_WIND NEUMANN_PRES MLC_LAT MLC_LON MLC_CLASS MLC_WIND MLC_PRES USA_GUST BOM_GUST BOM_GUST_PER REUNION_GUST REUNION_GUST_PER USA_SEAHGT USA_SEARAD_NE USA_SEARAD_SE USA_SEARAD_SW USA_SEARAD_NW STORM_SPEED STORM_DIR
1968259N32287 1968 92 NA NA NOT_NAMED 1968-09-14 12:00:00 ET 31.9000 -73.0000 25 1012 hurdat_atl main 450 450 O_____________ hurdat_atl AL091968 31.9000 -73.0000 EX 25 1012 -4 11 70
1968259N32287 1968 92 NA NA NOT_NAMED 1968-09-14 15:00:00 ET 32.0881 -72.3953 main 477 477 P_____________ AL091968 32.0881 -72.3953 EX 25 1010 -4 11 69
1968259N32287 1968 92 NA NA NOT_NAMED 1968-09-14 18:00:00 ET 32.3000 -71.8000 25 hurdat_atl main 506 506 I_____________ hurdat_atl AL091968 32.3000 -71.8000 EX 25 1009 -4 11 65
1968259N32287 1968 92 NA NA NOT_NAMED 1968-09-14 21:00:00 ET 32.5498 -71.2275 main 538 531 P_____________ AL091968 32.5498 -71.2275 EX 25 1008 -4 11 62
1968259N32287 1968 92 NA NA NOT_NAMED 1968-09-15 00:00:00 ET 32.8000 -70.7000 25 1007 hurdat_atl main 552 552 O_____________ hurdat_atl AL091968 32.8000 -70.7000 EX 25 1007 -4 10 61
1968259N32287 1968 92 NA NA NOT_NAMED 1968-09-15 03:00:00 ET 33.0147 -70.2272 main 576 576 P_____________ AL091968 33.0147 -70.2272 EX 25 -4 9 62
1968259N32287 1968 92 NA NA NOT_NAMED 1968-09-15 06:00:00 ET 33.2000 -69.8000 25 hurdat_atl main 596 596 O_____________ hurdat_atl AL091968 33.2000 -69.8000 EX 25 -4 8 64
1968259N32287 1968 92 NA NA NOT_NAMED 1968-09-15 09:00:00 ET 33.3574 -69.3848 main 617 617 P_____________ AL091968 33.3574 -69.3848 EX 27 -4 7 66
1968259N32287 1968 92 NA NA NOT_NAMED 1968-09-15 12:00:00 ET 33.5000 -69.0000 30 hurdat_atl main 646 646 O_____________ hurdat_atl AL091968 33.5000 -69.0000 EX 30 -4 7 65
1968259N32287 1968 92 NA NA NOT_NAMED 1968-09-15 15:00:00 ET 33.6500 -68.6200 main 670 670 P_____________ AL091968 33.6500 -68.6200 EX 32 -4 7 63
1968259N32287 1968 92 NA NA NOT_NAMED 1968-09-15 18:00:00 ET 33.8000 -68.3000 35 hurdat_atl main 692 692 O_____________ hurdat_atl AL091968 33.8000 -68.3000 EX 35 -4 5 60
1968259N32287 1968 92 NA NA NOT_NAMED 1968-09-15 21:00:00 ET 33.9199 -68.0697 main 706 706 P_____________ AL091968 33.9199 -68.0697 EX 37 -4 4 48
1968259N32287 1968 92 NA NA NOT_NAMED 1968-09-16 00:00:00 ET 34.1000 -67.9000 40 hurdat_atl main 716 713 O_____________ hurdat_atl AL091968 34.1000 -67.9000 EX 40 -4 5 30
1968259N32287 1968 92 NA NA NOT_NAMED 1968-09-16 03:00:00 ET 34.3824 -67.7496 main 724 719 P_____________ AL091968 34.3824 -67.7496 EX 42 -4 7 19
1968259N32287 1968 92 NA NA NOT_NAMED 1968-09-16 06:00:00 ET 34.8000 -67.6000 45 hurdat_atl main 723 719 O_____________ hurdat_atl AL091968 34.8000 -67.6000 EX 45 -4 10 14
1968259N32287 1968 92 NA NA NOT_NAMED 1968-09-16 09:00:00 ET 35.3472 -67.4513 main 724 678 P_____________ AL091968 35.3472 -67.4513 EX 45 -4 12 15
1968259N32287 1968 92 NA NA NOT_NAMED 1968-09-16 12:00:00 ET 36.0000 -67.2000 45 hurdat_atl main 678 620 O_____________ hurdat_atl AL091968 36.0000 -67.2000 EX 45 -4 15 22
1968259N32287 1968 92 NA NA NOT_NAMED 1968-09-16 15:00:00 ET 36.7075 -66.7605 main 620 578 P_____________ AL091968 36.7075 -66.7605 EX 45 -4 16 30
1968259N32287 1968 92 NA NA NOT_NAMED 1968-09-16 18:00:00 ET 37.4000 -66.2000 45 hurdat_atl main 578 550 O_____________ hurdat_atl AL091968 37.4000 -66.2000 EX 45 -4 16 35
1968259N32287 1968 92 NA NA NOT_NAMED 1968-09-16 21:00:00 ET 38.0250 -65.6079 main 556 547 P_____________ AL091968 38.0250 -65.6079 EX 47 -4 15 41
1968259N32287 1968 92 NA NA NOT_NAMED 1968-09-17 00:00:00 SS 38.5000 -65.0000 50 hurdat_atl main 553 527 O_____________ hurdat_atl AL091968 38.5000 -65.0000 SS 50 -2 12 51
1968259N32287 1968 92 NA NA NOT_NAMED 1968-09-17 03:00:00 SS 38.7823 -64.4266 main 528 519 P_____________ AL091968 38.7823 -64.4266 SS 52 -2 9 65
1968259N32287 1968 92 NA NA NOT_NAMED 1968-09-17 06:00:00 SS 38.9000 -63.9000 55 hurdat_atl main 524 524 O_____________ hurdat_atl AL091968 38.9000 -63.9000 SS 55 -2 8 79
1968259N32287 1968 92 NA NA NOT_NAMED 1968-09-17 09:00:00 SS 38.9374 -63.4120 main 535 535 P_____________ AL091968 38.9374 -63.4120 SS 55 -2 7 90
1968259N32287 1968 92 NA NA NOT_NAMED 1968-09-17 12:00:00 SS 38.9000 -63.0000 55 hurdat_atl main 546 546 O_____________ hurdat_atl AL091968 38.9000 -63.0000 SS 55 -2 6 96
1968259N32287 1968 92 NA NA NOT_NAMED 1968-09-17 15:00:00 SS 38.8723 -62.6626 main 555 555 P_____________ AL091968 38.8723 -62.6626 SS 55 -2 5 102
1968259N32287 1968 92 NA NA NOT_NAMED 1968-09-17 18:00:00 SS 38.8000 -62.4000 55 hurdat_atl main 576 576 O_____________ hurdat_atl AL091968 38.8000 -62.4000 SS 55 -2 4 120
1968259N32287 1968 92 NA NA NOT_NAMED 1968-09-17 21:00:00 SS 38.6574 -62.1849 main 593 593 P_____________ AL091968 38.6574 -62.1849 SS 57 -2 4 134
1968259N32287 1968 92 NA NA NOT_NAMED 1968-09-18 00:00:00 SS 38.5000 -62.0000 60 hurdat_atl main 620 620 O_____________ hurdat_atl AL091968 38.5000 -62.0000 SS 60 -2 4 131
1968259N32287 1968 92 NA NA NOT_NAMED 1968-09-18 03:00:00 SS 38.3925 -61.8001 main 638 638 P_____________ AL091968 38.3925 -61.8001 SS 60 -2 4 122
1968259N32287 1968 92 NA NA NOT_NAMED 1968-09-18 06:00:00 SS 38.3000 -61.6000 60 hurdat_atl main 656 656 O_____________ hurdat_atl AL091968 38.3000 -61.6000 SS 60 -2 4 121
1968259N32287 1968 92 NA NA NOT_NAMED 1968-09-18 09:00:00 SS 38.2000 -61.4001 main 674 674 P_____________ AL091968 38.2000 -61.4001 SS 60 -2 4 122
1968259N32287 1968 92 NA NA NOT_NAMED 1968-09-18 12:00:00 SS 38.1000 -61.2000 60 hurdat_atl main 692 692 O_____________ hurdat_atl AL091968 38.1000 -61.2000 SS 60 -2 4 122
1968259N32287 1968 92 NA NA NOT_NAMED 1968-09-18 15:00:00 SS 38.0000 -61.0001 main 710 710 P_____________ AL091968 38.0000 -61.0001 SS 60 -2 4 122
1968259N32287 1968 92 NA NA NOT_NAMED 1968-09-18 18:00:00 SS 37.9000 -60.8000 60 hurdat_atl main 728 728 O_____________ hurdat_atl AL091968 37.9000 -60.8000 SS 60 -2 4 122
1968259N32287 1968 92 NA NA NOT_NAMED 1968-09-18 21:00:00 SS 37.8074 -60.6152 main 747 747 P_____________ AL091968 37.8074 -60.6152 SS 60 -2 4 122
1968259N32287 1968 92 NA NA NOT_NAMED 1968-09-19 00:00:00 SS 37.7000 -60.4000 60 hurdat_atl main 765 765 O_____________ hurdat_atl AL091968 37.7000 -60.4000 SS 60 -2 5 122
1968259N32287 1968 92 NA NA NOT_NAMED 1968-09-19 03:00:00 SS 37.5575 -60.1150 main 788 788 P_____________ AL091968 37.5575 -60.1150 SS 60 -2 6 122
1968259N32287 1968 92 NA NA NOT_NAMED 1968-09-19 06:00:00 SS 37.4000 -59.8000 60 hurdat_atl main 821 821 O_____________ hurdat_atl AL091968 37.4000 -59.8000 SS 60 -2 5 123
1968259N32287 1968 92 NA NA NOT_NAMED 1968-09-19 09:00:00 SS 37.2716 -59.5685 main 840 840 P_____________ AL091968 37.2716 -59.5685 SS 60 -2 6 122
1968259N32287 1968 92 NA NA NOT_NAMED 1968-09-19 12:00:00 SS 37.1000 -59.2000 60 hurdat_atl main 878 878 O_____________ hurdat_atl AL091968 37.1000 -59.2000 SS 60 -2 9 119
1968259N32287 1968 92 NA NA NOT_NAMED 1968-09-19 15:00:00 SS 36.8222 -58.5548 main 936 936 P_____________ AL091968 36.8222 -58.5548 SS 60 -2 13 117
1968259N32287 1968 92 NA NA NOT_NAMED 1968-09-19 18:00:00 SS 36.5000 -57.7000 60 hurdat_atl main 1007 1007 O_____________ hurdat_atl AL091968 36.5000 -57.7000 SS 60 -2 15 115
1968259N32287 1968 92 NA NA NOT_NAMED 1968-09-19 21:00:00 SS 36.1825 -56.8203 main 1064 1064 P_____________ AL091968 36.1825 -56.8203 SS 62 -2 17 110
1968259N32287 1968 92 NA NA NOT_NAMED 1968-09-20 00:00:00 SS 35.9000 -55.7000 65 hurdat_atl main 1129 1129 O_____________ hurdat_atl AL091968 35.9000 -55.7000 SS 65 -2 22 104
1968259N32287 1968 92 NA NA NOT_NAMED 1968-09-20 03:00:00 SS 35.6558 -54.2313 main 1205 1205 P_____________ AL091968 35.6558 -54.2313 SS 67 -2 25 99
1968259N32287 1968 92 NA NA NOT_NAMED 1968-09-20 06:00:00 SS 35.5000 -52.6000 70 hurdat_atl main 1235 1235 O_____________ hurdat_atl AL091968 35.5000 -52.6000 SS 70 -2 27 96
1968259N32287 1968 92 NA NA NOT_NAMED 1968-09-20 09:00:00 SS 35.3884 -50.9659 main 1259 1259 P_____________ AL091968 35.3884 -50.9659 SS 72 -2 25 90
1968259N32287 1968 92 NA NA NOT_NAMED 1968-09-20 12:00:00 SS 35.5000 -49.5000 75 976 hurdat_atl main 1272 1252 O_____________ hurdat_atl AL091968 35.5000 -49.5000 SS 75 976 -2 22 75
1968259N32287 1968 92 NA NA NOT_NAMED 1968-09-20 15:00:00 SS 35.9432 -48.3450 main 1257 1207 P_____________ AL091968 35.9432 -48.3450 SS 75 -2 20 56
1968259N32287 1968 92 NA NA NOT_NAMED 1968-09-20 18:00:00 SS 36.6000 -47.5000 75 hurdat_atl main 1207 1156 O_____________ hurdat_atl AL091968 36.6000 -47.5000 SS 75 -2 18 40
1968259N32287 1968 92 NA NA NOT_NAMED 1968-09-20 21:00:00 SS 37.3061 -46.9161 main 1156 1101 P_____________ AL091968 37.3061 -46.9161 SS 72 -2 16 30
1968259N32287 1968 92 NA NA NOT_NAMED 1968-09-21 00:00:00 SS 38.0000 -46.5000 70 hurdat_atl main 1101 1070 O_____________ hurdat_atl AL091968 38.0000 -46.5000 SS 70 -2 14 29
1968259N32287 1968 92 NA NA NOT_NAMED 1968-09-21 03:00:00 SS 38.5597 -46.0417 main 1064 1045 P_____________ AL091968 38.5597 -46.0417 SS 70 -2 12 35
1968259N32287 1968 92 NA NA NOT_NAMED 1968-09-21 06:00:00 SS 39.0000 -45.6000 70 hurdat_atl main 1045 1032 O_____________ hurdat_atl AL091968 39.0000 -45.6000 SS 70 -2 11 42
1968259N32287 1968 92 NA NA NOT_NAMED 1968-09-21 09:00:00 SS 39.3450 -45.1345 main 1043 1030 P_____________ AL091968 39.3450 -45.1345 SS 67 -2 9 49
1968259N32287 1968 92 NA NA NOT_NAMED 1968-09-21 12:00:00 SS 39.6000 -44.7000 65 982 hurdat_atl main 1037 1034 O_____________ hurdat_atl AL091968 39.6000 -44.7000 SS 65 982 -2 8 53
1968259N32287 1968 92 NA NA NOT_NAMED 1968-09-21 15:00:00 SS 39.8147 -44.3344 main 1041 1033 P_____________ AL091968 39.8147 -44.3344 SS 65 982 -2 7 53
1968259N32287 1968 92 NA NA NOT_NAMED 1968-09-21 18:00:00 SS 40.0000 -44.0000 65 hurdat_atl main 1042 1039 I_____________ hurdat_atl AL091968 40.0000 -44.0000 SS 65 983 -2 6 53
1968259N32287 1968 92 NA NA NOT_NAMED 1968-09-21 21:00:00 SS 40.1998 -43.6572 main 1043 1041 P_____________ AL091968 40.1998 -43.6572 SS 62 983 -2 7 53
1968259N32287 1968 92 NA NA NOT_NAMED 1968-09-22 00:00:00 SS 40.4000 -43.3000 60 984 hurdat_atl main 1051 1049 O_____________ hurdat_atl AL091968 40.4000 -43.3000 SS 60 984 -2 7 54
1968259N32287 1968 92 NA NA NOT_NAMED 1968-09-22 03:00:00 SS 40.6074 -42.9075 main 1060 1059 P_____________ AL091968 40.6074 -42.9075 SS 60 -2 7 57
1968259N32287 1968 92 NA NA NOT_NAMED 1968-09-22 06:00:00 SS 40.8000 -42.5000 60 hurdat_atl main 1070 1069 O_____________ hurdat_atl AL091968 40.8000 -42.5000 SS 60 -2 7 60
1968259N32287 1968 92 NA NA NOT_NAMED 1968-09-22 09:00:00 SS 40.9495 -42.1293 main 1088 1081 P_____________ AL091968 40.9495 -42.1293 SS 60 -2 7 64
1968259N32287 1968 92 NA NA NOT_NAMED 1968-09-22 12:00:00 ET 41.1000 -41.7000 60 hurdat_atl main 1099 1099 O_____________ hurdat_atl AL091968 41.1000 -41.7000 EX 60 -4 8 65
1968259N32287 1968 92 NA NA NOT_NAMED 1968-09-22 15:00:00 ET 41.2926 -41.1300 main 1125 1125 P_____________ AL091968 41.2926 -41.1300 EX 57 -4 10 66
1968259N32287 1968 92 NA NA NOT_NAMED 1968-09-22 18:00:00 ET 41.5000 -40.5000 55 hurdat_atl main 1153 1153 O_____________ hurdat_atl AL091968 41.5000 -40.5000 EX 55 -4 10 66
1968259N32287 1968 92 NA NA NOT_NAMED 1968-09-22 21:00:00 ET 41.7071 -39.9073 main 1181 1181 P_____________ AL091968 41.7071 -39.9073 EX 55 -4 10 66
1968259N32287 1968 92 NA NA NOT_NAMED 1968-09-23 00:00:00 ET 41.9000 -39.3000 55 hurdat_atl main 1211 1211 O_____________ hurdat_atl AL091968 41.9000 -39.3000 EX 55 -4 10 69
1968259N32287 1968 92 NA NA NOT_NAMED 1968-09-23 03:00:00 ET 42.0571 -38.6645 main 1243 1243 P_____________ AL091968 42.0571 -38.6645 EX 52 -4 10 73
1968259N32287 1968 92 NA NA NOT_NAMED 1968-09-23 06:00:00 ET 42.2000 -38.0000 50 hurdat_atl main 1286 1286 O_____________ hurdat_atl AL091968 42.2000 -38.0000 EX 50 -4 10 74
1968259N32287 1968 92 NA NA NOT_NAMED 1968-09-23 09:00:00 ET 42.3496 -37.3147 main 1329 1323 P_____________ AL091968 42.3496 -37.3147 EX 47 -4 11 74
1968259N32287 1968 92 NA NA NOT_NAMED 1968-09-23 12:00:00 ET 42.5000 -36.6000 45 hurdat_atl main 1367 1367 O_____________ hurdat_atl AL091968 42.5000 -36.6000 EX 45 -4 11 75
1968259N32287 1968 92 NA NA NOT_NAMED 1968-09-23 15:00:00 ET 42.6422 -35.8569 main 1412 1412 P_____________ AL091968 42.6422 -35.8569 EX 45 -4 11 75
1968259N32287 1968 92 NA NA NOT_NAMED 1968-09-23 18:00:00 ET 42.8000 -35.1000 45 hurdat_atl main 1459 1459 O_____________ hurdat_atl AL091968 42.8000 -35.1000 EX 45 -4 11 73
1968259N32287 1968 92 NA NA NOT_NAMED 1968-09-23 21:00:00 ET 42.9764 -34.3788 main 1500 1500 P_____________ AL091968 42.9764 -34.3788 EX 45 -4 12 70
1968259N32287 1968 92 NA NA NOT_NAMED 1968-09-24 00:00:00 ET 43.2000 -33.6000 45 hurdat_atl main 1549 1549 O_____________ hurdat_atl AL091968 43.2000 -33.6000 EX 45 -4 13 68
1968259N32287 1968 92 NA NA NOT_NAMED 1968-09-24 03:00:00 ET 43.4778 -32.6650 main 1602 1602 P_____________ AL091968 43.4778 -32.6650 EX 45 -4 15 66
1968259N32287 1968 92 NA NA NOT_NAMED 1968-09-24 06:00:00 ET 43.8000 -31.7000 45 hurdat_atl main 1663 1663 O_____________ hurdat_atl AL091968 43.8000 -31.7000 EX 45 -4 14 64
1968259N32287 1968 92 NA NA NOT_NAMED 1968-09-24 09:00:00 ET 44.0948 -30.8976 main 1711 1657 P_____________ AL091968 44.0948 -30.8976 EX 45 -4 14 60
1968259N32287 1968 92 NA NA NOT_NAMED 1968-09-24 12:00:00 ET 44.5000 -30.0000 45 hurdat_atl main 1651 1555 O_____________ hurdat_atl AL091968 44.5000 -30.0000 EX 45 -4 17 57
1968259N32287 1968 92 NA NA NOT_NAMED 1968-09-24 15:00:00 ET 45.0328 -28.8914 main 1548 1414 P_____________ AL091968 45.0328 -28.8914 EX 42 -4 22 55
1968259N32287 1968 92 NA NA NOT_NAMED 1968-09-24 18:00:00 ET 45.8000 -27.4000 40 hurdat_atl main 1402 1219 O_____________ hurdat_atl AL091968 45.8000 -27.4000 EX 40 -4 30 54
1968259N32287 1968 92 NA NA NOT_NAMED 1968-09-24 21:00:00 ET 46.8378 -25.3858 main 1213 1002 P_____________ AL091968 46.8378 -25.3858 EX 37 -4 37 54
1968259N32287 1968 92 NA NA NOT_NAMED 1968-09-25 00:00:00 ET 48.0000 -23.0000 35 hurdat_atl main 990 O_____________ hurdat_atl AL091968 48.0000 -23.0000 EX 35 -4 40 54

About IBTrACS Database

This database is a web-friendly format of International Best Track Archive for Climate Stewardship (IBTrACS), a global best track data archive curated by NOAA dating back to 1842.

Updated: 2022-05-13